»·PEaware :: N196EC KBTY-KSAN

N196EC :: KBTY-KSAN

FLIGHT INFORMATION

Flight Status: Arrived
Operator: Privately registered:
United States
More flights under this callsign
Pilot: Adrián R. (20842)
Aircraft: SOCATA TBM-900
(TBM9)
More flights by this aircraft type
Origin: KBTY Beatty
United States
Destination: KSAN San Diego Intl-Lindbergh
United States
More flights between these airports :: More routes between these airports
Route: BTY V135 CLARR TNP TRM V514 MZB
File this flight plan on PilotEdge
Remarks:
Altitude:
(Current/Filed)
310ft
Speed:
(Current/Filed)
311kts
Departed: 21-Nov-18 10:38 AM
Arrived: 21-Nov-18 11:52 AM
Distance/Time
Traveled:
248nm/1:14
Distance/Time
To Go:
Arrived

Flight Plot

Page will automatically refresh every two minutes.

Flight plan parsing failed; only flown route is shown


Map Options




Map Legend


Flown Route
Filed Route
Departure Airport
Arrival Airport
Navaid (VOR, NDB)
Fix

Horizontal Profiles

Position Reports

Time Latitude Longitude Heading Altitude Ground
Speed
21-Nov-18 10:09 36.867645 -116.784125 346 3165ft 0kts
21-Nov-18 10:10 36.867645 -116.784125 346 3165ft 0kts
21-Nov-18 10:11 36.867645 -116.784125 346 3165ft 0kts
21-Nov-18 10:12 36.867645 -116.784125 346 3165ft 0kts
21-Nov-18 10:13 36.867645 -116.784125 346 3165ft 0kts
21-Nov-18 10:14 36.867645 -116.784125 346 3165ft 0kts
21-Nov-18 10:15 36.867645 -116.784125 346 3165ft 0kts
21-Nov-18 10:16 36.867645 -116.784125 346 3165ft 0kts
21-Nov-18 10:17 36.867645 -116.784125 346 3165ft 0kts
21-Nov-18 10:18 36.867645 -116.784125 346 3165ft 0kts
21-Nov-18 10:19 36.867645 -116.784125 346 3165ft 0kts
21-Nov-18 10:20 36.867645 -116.784125 346 3165ft 0kts
21-Nov-18 10:21 36.867645 -116.784125 346 3165ft 0kts
21-Nov-18 10:22 36.867645 -116.784125 346 3165ft 0kts
21-Nov-18 10:23 36.867645 -116.784125 346 3165ft 0kts
21-Nov-18 10:24 36.867645 -116.784125 346 3165ft 0kts
21-Nov-18 10:25 36.867645 -116.784125 346 3165ft 0kts
21-Nov-18 10:26 36.867645 -116.784125 346 3165ft 0kts
21-Nov-18 10:27 36.867645 -116.784125 346 3165ft 0kts
21-Nov-18 10:28 36.867645 -116.784125 346 3165ft 0kts
21-Nov-18 10:29 36.867645 -116.784125 346 3165ft 0kts
21-Nov-18 10:30 36.867645 -116.784125 346 3165ft 0kts
21-Nov-18 10:31 36.867645 -116.784125 346 3165ft 0kts
21-Nov-18 10:32 36.867645 -116.784125 346 3165ft 0kts
21-Nov-18 10:33 36.867645 -116.784125 346 3165ft 0kts
21-Nov-18 10:34 36.867645 -116.784125 346 3165ft 0kts
21-Nov-18 10:35 36.867645 -116.784125 346 3165ft 0kts
21-Nov-18 10:36 36.867645 -116.784125 346 3165ft 0kts
21-Nov-18 10:37 36.867645 -116.784125 346 3165ft 0kts
21-Nov-18 10:38 36.867645 -116.784125 346 3165ft 0kts
21-Nov-18 10:39 36.867648 -116.784126 346 3165ft 0kts
21-Nov-18 10:40 36.868638 -116.785811 271 3169ft 15kts
21-Nov-18 10:41 36.854828 -116.786193 177 3516ft 122kts
21-Nov-18 10:42 36.820276 -116.765462 143 5259ft 159kts
21-Nov-18 10:43 36.785132 -116.732670 139 7479ft 158kts
21-Nov-18 10:44 36.751353 -116.699987 141 9712ft 155kts
21-Nov-18 10:45 36.717461 -116.667236 145 11894ft 158kts
21-Nov-18 10:46 36.682229 -116.633337 147 14046ft 164kts
21-Nov-18 10:47 36.645727 -116.598190 148 16088ft 169kts
21-Nov-18 10:48 36.607888 -116.561805 149 17949ft 178kts
21-Nov-18 10:49 36.568135 -116.523619 150 19883ft 184kts
21-Nov-18 10:50 36.526605 -116.483788 151 21697ft 193kts
21-Nov-18 10:51 36.483280 -116.442294 151 23559ft 202kts
21-Nov-18 10:52 36.437998 -116.398984 152 25376ft 212kts
21-Nov-18 10:53 36.389140 -116.352364 152 26856ft 233kts
21-Nov-18 10:54 36.346984 -116.312122 153 28207ft 233kts
21-Nov-18 10:55 36.286781 -116.254826 153 29962ft 236kts
21-Nov-18 10:56 36.243260 -116.213472 154 31124ft 238kts
21-Nov-18 10:57 36.185703 -116.158997 152 31251ft 283kts
21-Nov-18 10:58 36.109220 -116.086521 151 31242ft 308kts
21-Nov-18 10:59 36.040115 -116.021258 151 31237ft 316kts
21-Nov-18 11:00 35.981471 -115.966023 151 31235ft 320kts
21-Nov-18 11:01 35.910855 -115.899650 151 31235ft 321kts
21-Nov-18 11:02 35.853758 -115.846108 151 31249ft 321kts
21-Nov-18 11:03 35.782699 -115.779618 151 31255ft 321kts
21-Nov-18 11:04 35.711735 -115.713359 151 31261ft 322kts
21-Nov-18 11:05 35.633015 -115.682957 188 31274ft 290kts
21-Nov-18 11:06 35.552876 -115.686985 190 31270ft 289kts
21-Nov-18 11:07 35.472961 -115.691638 190 31258ft 290kts
21-Nov-18 11:08 35.392396 -115.696357 190 31258ft 291kts
21-Nov-18 11:09 35.311616 -115.701053 190 31256ft 291kts
21-Nov-18 11:10 35.230854 -115.705749 190 31254ft 291kts
21-Nov-18 11:11 35.150126 -115.710444 190 31255ft 291kts
21-Nov-18 11:12 35.069642 -115.715109 190 31259ft 291kts
21-Nov-18 11:13 34.989009 -115.719724 191 31262ft 290kts
21-Nov-18 11:14 34.908625 -115.724339 193 31264ft 289kts
21-Nov-18 11:15 34.840155 -115.728333 194 31268ft 289kts
21-Nov-18 11:16 34.761983 -115.732853 194 31272ft 289kts
21-Nov-18 11:17 34.681612 -115.737473 193 31269ft 289kts
21-Nov-18 11:18 34.601345 -115.742075 193 31271ft 289kts
21-Nov-18 11:19 34.521045 -115.746661 193 31266ft 289kts
21-Nov-18 11:20 34.440960 -115.751231 193 31267ft 289kts
21-Nov-18 11:21 34.360760 -115.755801 194 31266ft 289kts
21-Nov-18 11:22 34.281294 -115.760311 193 31265ft 289kts
21-Nov-18 11:23 34.201314 -115.764856 193 31266ft 289kts
21-Nov-18 11:24 34.121824 -115.771177 204 31252ft 277kts
21-Nov-18 11:25 34.057763 -115.814449 220 31257ft 263kts
21-Nov-18 11:26 33.996955 -115.863393 220 30964ft 272kts
21-Nov-18 11:27 33.930854 -115.916841 219 29488ft 296kts
21-Nov-18 11:28 33.864226 -115.970576 217 28071ft 302kts
21-Nov-18 11:29 33.794597 -116.026623 216 26596ft 301kts
21-Nov-18 11:30 33.726701 -116.081187 215 25138ft 298kts
21-Nov-18 11:31 33.659062 -116.135399 214 24179ft 282kts
21-Nov-18 11:32 33.597601 -116.187040 217 24173ft 262kts
21-Nov-18 11:33 33.536793 -116.240431 216 22731ft 279kts
21-Nov-18 11:34 33.475373 -116.294240 215 20750ft 277kts
21-Nov-18 11:35 33.413676 -116.348190 214 18745ft 276kts
21-Nov-18 11:36 33.352036 -116.401991 214 16729ft 276kts
21-Nov-18 11:37 33.290501 -116.455601 213 14721ft 273kts
21-Nov-18 11:38 33.229542 -116.508611 214 12712ft 271kts
21-Nov-18 11:39 33.169019 -116.561137 214 10815ft 265kts
21-Nov-18 11:40 33.103324 -116.589387 186 10563ft 262kts
21-Nov-18 11:41 33.029383 -116.597427 186 9995ft 263kts
21-Nov-18 11:42 32.957317 -116.604941 186 9997ft 260kts
21-Nov-18 11:43 32.885575 -116.612366 186 10002ft 262kts
21-Nov-18 11:44 32.829475 -116.653841 236 9187ft 267kts
21-Nov-18 11:45 32.785900 -116.724577 233 8007ft 265kts
21-Nov-18 11:46 32.743857 -116.791487 234 6906ft 241kts
21-Nov-18 11:47 32.704966 -116.853302 233 5851ft 231kts
21-Nov-18 11:48 32.676911 -116.918122 249 4811ft 211kts
21-Nov-18 11:49 32.683609 -116.984841 286 3588ft 214kts
21-Nov-18 11:50 32.699242 -117.048810 285 1795ft 191kts
21-Nov-18 11:51 32.711109 -117.097562 287 1368ft 130kts
21-Nov-18 11:52 32.719104 -117.131000 288 1186ft 84kts
21-Nov-18 11:53 32.725629 -117.157386 288 585ft 83kts
21-Nov-18 11:54 32.732024 -117.183343 287 25ft 76kts
21-Nov-18 11:55 32.734735 -117.190689 42 18ft 2kts
21-Nov-18 11:56 32.734253 -117.187775 106 18ft 13kts
21-Nov-18 11:57 32.733230 -117.183543 105 17ft 12kts
21-Nov-18 11:58 32.732230 -117.179409 106 17ft 12kts
21-Nov-18 11:59 32.732531 -117.177284 330 20ft 3kts
21-Nov-18 12:00 32.732371 -117.177740 193 19ft 0kts
21-Nov-18 12:01 32.732372 -117.177740 193 19ft 0kts
21-Nov-18 12:02 32.732372 -117.177740 193 19ft 0kts
21-Nov-18 12:03 32.732372 -117.177740 193 19ft 0kts
21-Nov-18 12:04 32.732372 -117.177740 193 19ft 0kts

Navigation Log

Ident Type
Flight plan parsing failed, navigation log unavailable